Time;durP1;ratioP1;P1;durP2;ratioP2;P2;SDS_P1;SDS_P2;PMS_P1;PMS_P2;Temp;Humidity;BMP_temperature;BMP_pressure;BME280_temperature;BME280_humidity;BME280_pressure;Samples;Min_cycle;Max_cycle;Signal;HPM_P1;HPM_P2
2023/05/08 00:00:40;;;;;;;5.82;4.45;;;;;;;;;;5072514;28;20072;-61
2023/05/08 00:03:08;;;;;;;6.88;4.47;;;;;;;;;;5072167;28;20091;-61
2023/05/08 00:05:36;;;;;;;6.78;4.53;;;;;;;;;;5072571;28;20063;-60
2023/05/08 00:08:03;;;;;;;7.00;4.70;;;;;;;;;;5054547;28;20406;-60
2023/05/08 00:10:31;;;;;;;8.00;4.20;;;;;;;;;;5072689;28;20429;-61
2023/05/08 00:12:58;;;;;;;6.07;4.15;;;;;;;;;;5072430;28;20486;-60
2023/05/08 00:15:26;;;;;;;8.30;4.85;;;;;;;;;;5072401;28;20525;-61
2023/05/08 00:17:53;;;;;;;7.22;4.38;;;;;;;;;;5077588;28;20046;-61
2023/05/08 00:20:21;;;;;;;7.28;4.63;;;;;;;;;;5079017;28;20040;-60
2023/05/08 00:22:48;;;;;;;9.10;4.55;;;;;;;;;;5078849;28;20048;-60
2023/05/08 00:25:16;;;;;;;6.65;4.45;;;;;;;;;;5079063;28;20036;-60
2023/05/08 00:27:43;;;;;;;6.32;4.13;;;;;;;;;;5060978;28;20437;-60
2023/05/08 00:30:11;;;;;;;9.18;4.15;;;;;;;;;;5079048;28;20068;-60
2023/05/08 00:32:39;;;;;;;8.10;5.15;;;;;;;;;;5061036;28;20503;-61
2023/05/08 00:35:07;;;;;;;7.38;4.32;;;;;;;;;;5060962;28;20036;-61
2023/05/08 00:37:36;;;;;;;9.52;4.22;;;;;;;;;;5077747;28;20040;-61
2023/05/08 00:40:04;;;;;;;6.65;4.40;;;;;;;;;;5060976;28;20099;-61
2023/05/08 00:42:31;;;;;;;13.40;4.43;;;;;;;;;;5060911;28;20098;-60
2023/05/08 00:44:58;;;;;;;7.43;4.13;;;;;;;;;;5060856;28;20107;-61
2023/05/08 00:47:26;;;;;;;8.52;4.50;;;;;;;;;;5060694;28;20056;-61
2023/05/08 00:49:54;;;;;;;6.50;4.30;;;;;;;;;;5060868;28;20123;-60
2023/05/08 00:52:21;;;;;;;9.07;4.43;;;;;;;;;;5078823;28;20050;-60
2023/05/08 00:54:49;;;;;;;9.02;4.40;;;;;;;;;;5044303;28;20064;-60
2023/05/08 00:57:17;;;;;;;6.78;4.28;;;;;;;;;;5077477;28;20047;-61
2023/05/08 00:59:45;;;;;;;6.13;4.32;;;;;;;;;;5078693;28;20044;-60
2023/05/08 01:02:14;;;;;;;5.85;4.22;;;;;;;;;;5078654;28;20048;-61
2023/05/08 01:04:45;;;;;;;6.28;4.65;;;;;;;;;;5060464;28;20052;-61
2023/05/08 01:07:12;;;;;;;9.30;4.25;;;;;;;;;;5060612;28;20070;-61
2023/05/08 01:09:39;;;;;;;7.88;4.20;;;;;;;;;;5060754;28;20098;-61
2023/05/08 01:12:10;;;;;;;8.50;4.43;;;;;;;;;;5077169;28;20048;-61
2023/05/08 01:15:00;;;;;;;8.25;4.22;;;;;;;;;;5060470;28;20044;-60
2023/05/08 01:17:34;;;;;;;5.43;3.70;;;;;;;;;;5077374;28;20446;-60
2023/05/08 01:20:17;;;;;;;8.15;4.25;;;;;;;;;;5060791;28;20475;-60
2023/05/08 01:22:44;;;;;;;7.68;4.20;;;;;;;;;;5094355;28;20032;-60
2023/05/08 01:25:31;;;;;;;4.93;3.50;;;;;;;;;;5060617;28;20131;-60
2023/05/08 01:28:22;;;;;;;7.25;3.97;;;;;;;;;;5077580;28;20037;-61
2023/05/08 01:30:58;;;;;;;7.75;4.38;;;;;;;;;;5074133;28;20049;-61
2023/05/08 01:33:28;;;;;;;9.25;3.70;;;;;;;;;;5075145;28;20402;-62
2023/05/08 01:35:58;;;;;;;7.50;4.40;;;;;;;;;;5073991;28;20131;-62
2023/05/08 01:38:34;;;;;;;7.35;3.90;;;;;;;;;;5073958;28;20102;-61
2023/05/08 01:41:08;;;;;;;12.82;3.92;;;;;;;;;;5073958;28;20047;-62
2023/05/08 01:43:50;;;;;;;5.90;3.88;;;;;;;;;;5074003;28;20102;-61
2023/05/08 01:46:20;;;;;;;6.13;3.95;;;;;;;;;;5075119;28;20036;-62
2023/05/08 01:49:04;;;;;;;5.22;3.63;;;;;;;;;;5056988;28;20495;-62
2023/05/08 01:51:42;;;;;;;5.82;3.90;;;;;;;;;;5075125;28;20105;-61
2023/05/08 01:54:12;;;;;;;5.13;4.00;;;;;;;;;;5056818;28;20132;-61
2023/05/08 01:56:42;;;;;;;6.60;4.18;;;;;;;;;;5057051;28;20517;-62
2023/05/08 01:59:10;;;;;;;8.15;4.65;;;;;;;;;;5073577;28;20048;-61
2023/05/08 02:01:38;;;;;;;6.10;4.25;;;;;;;;;;5056727;28;20058;-61
2023/05/08 02:04:06;;;;;;;7.03;4.10;;;;;;;;;;5056527;28;20052;-61
2023/05/08 02:06:36;;;;;;;5.60;4.13;;;;;;;;;;5074664;28;20086;-61
2023/05/08 02:09:06;;;;;;;8.18;5.18;;;;;;;;;;5074713;28;20048;-61
2023/05/08 02:11:35;;;;;;;7.55;4.60;;;;;;;;;;5073300;28;20055;-62
2023/05/08 02:14:04;;;;;;;7.28;4.63;;;;;;;;;;5074743;28;20044;-62
2023/05/08 02:16:32;;;;;;;7.20;4.60;;;;;;;;;;5074378;28;20444;-62
2023/05/08 02:19:00;;;;;;;6.68;4.43;;;;;;;;;;5056396;28;20127;-61
2023/05/08 02:21:28;;;;;;;7.90;4.78;;;;;;;;;;5074343;28;20090;-61
2023/05/08 02:23:56;;;;;;;6.32;4.78;;;;;;;;;;5074324;28;20067;-61
2023/05/08 02:26:25;;;;;;;5.63;4.60;;;;;;;;;;5056080;28;20490;-61
2023/05/08 02:28:53;;;;;;;8.07;5.10;;;;;;;;;;5072774;28;20048;-62
2023/05/08 02:31:21;;;;;;;8.18;5.40;;;;;;;;;;5056085;28;20489;-61
2023/05/08 02:33:49;;;;;;;13.13;5.72;;;;;;;;;;5056156;28;20048;-61
2023/05/08 02:36:18;;;;;;;8.07;5.10;;;;;;;;;;5055995;28;20568;-62
2023/05/08 02:38:48;;;;;;;7.10;5.13;;;;;;;;;;5056081;28;20044;-61
2023/05/08 02:41:17;;;;;;;7.72;5.53;;;;;;;;;;5055362;28;20044;-61
2023/05/08 02:43:45;;;;;;;10.00;5.68;;;;;;;;;;5055944;28;20041;-61
2023/05/08 02:46:19;;;;;;;10.20;5.53;;;;;;;;;;5056435;28;20045;-61
2023/05/08 02:48:53;;;;;;;9.07;5.82;;;;;;;;;;5073901;28;20482;-62
2023/05/08 02:51:37;;;;;;;8.90;5.40;;;;;;;;;;5089913;28;20049;-62
2023/05/08 02:54:09;;;;;;;9.98;5.13;;;;;;;;;;5089095;28;20040;-61
2023/05/08 02:56:38;;;;;;;9.52;5.47;;;;;;;;;;5096133;28;20059;-61
2023/05/08 02:59:29;;;;;;;10.10;5.63;;;;;;;;;;5114346;28;20081;-62
2023/05/08 03:02:10;;;;;;;10.85;5.70;;;;;;;;;;5095957;28;20047;-61
2023/05/08 03:04:41;;;;;;;8.70;5.28;;;;;;;;;;5092279;28;20052;-61
2023/05/08 03:07:10;;;;;;;8.13;5.00;;;;;;;;;;5092579;28;20048;-61
2023/05/08 03:09:45;;;;;;;9.25;5.45;;;;;;;;;;5093680;28;20153;-61
2023/05/08 03:12:15;;;;;;;10.85;5.60;;;;;;;;;;5109322;28;20083;-61
2023/05/08 03:14:45;;;;;;;6.90;5.03;;;;;;;;;;5092434;28;20078;-62
2023/05/08 03:17:13;;;;;;;10.90;5.57;;;;;;;;;;5078115;28;20040;-61
2023/05/08 03:19:42;;;;;;;6.57;4.53;;;;;;;;;;5087877;28;20041;-61
2023/05/08 03:22:09;;;;;;;7.43;4.70;;;;;;;;;;5071847;28;20051;-61
2023/05/08 03:24:39;;;;;;;7.40;4.82;;;;;;;;;;5074033;28;20110;-60
2023/05/08 03:27:07;;;;;;;8.48;5.35;;;;;;;;;;5094977;28;20076;-60
2023/05/08 03:29:35;;;;;;;9.23;5.00;;;;;;;;;;5089970;28;20038;-60
2023/05/08 03:32:03;;;;;;;8.52;5.22;;;;;;;;;;5091589;28;20044;-60
2023/05/08 03:34:30;;;;;;;7.45;5.13;;;;;;;;;;5108594;28;20047;-60
2023/05/08 03:36:58;;;;;;;10.45;5.03;;;;;;;;;;5092897;28;20075;-60
2023/05/08 03:39:26;;;;;;;11.43;4.90;;;;;;;;;;5091497;28;20044;-60
2023/05/08 03:41:55;;;;;;;9.30;5.53;;;;;;;;;;5108534;28;20097;-60
2023/05/08 03:44:24;;;;;;;8.52;5.07;;;;;;;;;;5107030;28;20050;-60
2023/05/08 03:46:52;;;;;;;8.57;4.93;;;;;;;;;;5090330;28;20073;-60
2023/05/08 03:49:21;;;;;;;9.40;5.30;;;;;;;;;;5107423;28;20486;-60
2023/05/08 03:51:49;;;;;;;8.95;4.95;;;;;;;;;;5106846;28;20047;-60
2023/05/08 03:54:17;;;;;;;9.65;5.10;;;;;;;;;;5108277;28;20048;-60
2023/05/08 03:56:46;;;;;;;12.63;5.15;;;;;;;;;;5091333;28;20070;-60
2023/05/08 03:59:17;;;;;;;6.72;4.68;;;;;;;;;;5108489;28;20048;-60
2023/05/08 04:01:56;;;;;;;10.85;5.63;;;;;;;;;;5108830;28;20090;-60
2023/05/08 04:04:27;;;;;;;8.98;5.40;;;;;;;;;;5108497;28;20063;-60
2023/05/08 04:07:10;;;;;;;7.97;4.75;;;;;;;;;;5108452;28;20055;-60
2023/05/08 04:10:03;;;;;;;11.80;4.65;;;;;;;;;;5091508;28;20054;-60
2023/05/08 04:13:07;;;;;;;9.48;4.80;;;;;;;;;;5088179;28;20122;-60
2023/05/08 04:15:47;;;;;;;6.75;4.20;;;;;;;;;;5053314;28;20079;-60
2023/05/08 04:18:17;;;;;;;9.95;4.60;;;;;;;;;;5087496;28;20101;-60
2023/05/08 04:20:49;;;;;;;11.90;5.47;;;;;;;;;;5091521;28;20064;-60
2023/05/08 04:23:18;;;;;;;9.77;5.68;;;;;;;;;;5091420;28;20054;-60
2023/05/08 04:25:46;;;;;;;11.70;4.70;;;;;;;;;;5108190;28;20444;-60
2023/05/08 04:28:14;;;;;;;8.57;4.30;;;;;;;;;;5108349;28;20045;-60
2023/05/08 04:30:42;;;;;;;8.15;4.10;;;;;;;;;;5108095;28;20048;-60
2023/05/08 04:33:10;;;;;;;8.82;4.80;;;;;;;;;;5107998;28;20096;-60
2023/05/08 04:35:38;;;;;;;8.38;4.75;;;;;;;;;;5091110;28;20123;-60
2023/05/08 04:38:06;;;;;;;9.10;4.00;;;;;;;;;;5074191;28;20037;-60
2023/05/08 04:40:34;;;;;;;9.30;4.22;;;;;;;;;;5108348;28;20040;-60
2023/05/08 04:43:02;;;;;;;8.68;4.30;;;;;;;;;;5108192;28;20043;-60
2023/05/08 04:45:29;;;;;;;6.32;4.28;;;;;;;;;;5108079;28;20086;-60
2023/05/08 04:47:57;;;;;;;7.13;3.95;;;;;;;;;;5108390;28;20040;-60
2023/05/08 04:50:24;;;;;;;8.52;4.13;;;;;;;;;;5108078;28;20048;-60
2023/05/08 04:52:52;;;;;;;6.93;3.97;;;;;;;;;;5108040;28;20044;-60
2023/05/08 04:55:20;;;;;;;6.85;3.83;;;;;;;;;;5108285;28;20040;-60
2023/05/08 04:57:47;;;;;;;6.22;3.92;;;;;;;;;;5108045;28;20044;-60
2023/05/08 05:00:15;;;;;;;8.25;3.90;;;;;;;;;;5108519;28;20097;-60
2023/05/08 05:02:45;;;;;;;7.95;3.50;;;;;;;;;;5108253;28;20052;-60
2023/05/08 05:05:12;;;;;;;6.40;3.40;;;;;;;;;;5111570;28;20054;-60
2023/05/08 05:07:40;;;;;;;5.75;3.20;;;;;;;;;;5111780;28;20051;-60
2023/05/08 05:10:10;;;;;;;5.38;3.28;;;;;;;;;;5078181;28;20093;-60
2023/05/08 05:12:37;;;;;;;6.68;3.17;;;;;;;;;;5111702;28;20466;-59
2023/05/08 05:15:05;;;;;;;8.40;3.28;;;;;;;;;;5111658;28;20562;-60
2023/05/08 05:17:35;;;;;;;10.05;3.42;;;;;;;;;;5111451;28;20227;-60
2023/05/08 05:20:04;;;;;;;10.57;3.30;;;;;;;;;;5111660;28;20055;-60
2023/05/08 05:22:32;;;;;;;5.80;2.83;;;;;;;;;;5094743;28;20489;-60
2023/05/08 05:25:00;;;;;;;7.18;2.85;;;;;;;;;;5094480;28;20109;-60
2023/05/08 05:27:28;;;;;;;6.15;2.90;;;;;;;;;;5111757;28;20528;-60
2023/05/08 05:29:55;;;;;;;4.45;3.03;;;;;;;;;;5095685;28;20036;-60
2023/05/08 05:32:23;;;;;;;6.95;3.72;;;;;;;;;;5094559;28;20105;-60
2023/05/08 05:34:52;;;;;;;4.80;2.72;;;;;;;;;;5111456;28;20044;-60
2023/05/08 05:37:21;;;;;;;2.92;2.42;;;;;;;;;;5094779;28;20085;-61
2023/05/08 05:39:48;;;;;;;5.75;2.80;;;;;;;;;;5111237;28;20056;-60
2023/05/08 05:42:16;;;;;;;5.72;2.90;;;;;;;;;;5094702;28;20036;-60
2023/05/08 05:44:43;;;;;;;6.18;2.55;;;;;;;;;;5111077;28;20044;-60
2023/05/08 05:47:11;;;;;;;6.00;2.85;;;;;;;;;;5095335;28;20482;-60
2023/05/08 05:49:45;;;;;;;5.93;3.00;;;;;;;;;;5094165;28;20040;-60
2023/05/08 05:52:13;;;;;;;5.68;2.97;;;;;;;;;;5111029;28;20518;-60
2023/05/08 05:54:41;;;;;;;5.70;3.05;;;;;;;;;;5093794;28;20048;-60
2023/05/08 05:57:09;;;;;;;6.45;2.55;;;;;;;;;;5093744;28;20500;-60
2023/05/08 05:59:37;;;;;;;7.90;2.85;;;;;;;;;;5110622;28;20040;-60
2023/05/08 06:02:09;;;;;;;5.07;2.63;;;;;;;;;;5095242;28;20058;-60
2023/05/08 06:04:37;;;;;;;4.47;2.40;;;;;;;;;;5110702;28;20561;-60
2023/05/08 06:07:06;;;;;;;3.70;2.70;;;;;;;;;;5110658;28;20044;-60
2023/05/08 06:09:34;;;;;;;4.53;2.50;;;;;;;;;;5095161;28;20040;-60
2023/05/08 06:12:01;;;;;;;5.25;2.67;;;;;;;;;;5094878;28;20040;-60
2023/05/08 06:14:29;;;;;;;6.78;3.10;;;;;;;;;;5109636;28;20502;-60
2023/05/08 06:16:58;;;;;;;5.70;2.35;;;;;;;;;;5110606;28;20064;-61
2023/05/08 06:19:27;;;;;;;6.68;2.72;;;;;;;;;;5110353;28;20042;-60
2023/05/08 06:21:55;;;;;;;6.10;2.90;;;;;;;;;;5093629;28;20113;-59
2023/05/08 06:24:22;;;;;;;6.97;2.80;;;;;;;;;;5110282;28;20409;-60
2023/05/08 06:26:50;;;;;;;7.15;2.67;;;;;;;;;;5094872;28;20040;-60
2023/05/08 06:29:17;;;;;;;4.18;2.28;;;;;;;;;;5094300;28;20032;-60
2023/05/08 06:31:44;;;;;;;5.80;2.72;;;;;;;;;;5094526;28;20044;-60
2023/05/08 06:34:12;;;;;;;6.00;2.85;;;;;;;;;;5110145;28;20561;-59
2023/05/08 06:36:40;;;;;;;3.95;2.47;;;;;;;;;;5092925;28;20048;-59
2023/05/08 06:39:07;;;;;;;4.38;2.55;;;;;;;;;;5094270;28;20492;-60
2023/05/08 06:41:35;;;;;;;5.18;2.53;;;;;;;;;;5094418;28;20110;-59
2023/05/08 06:44:03;;;;;;;4.30;2.47;;;;;;;;;;5094569;28;20105;-59
2023/05/08 06:46:30;;;;;;;4.15;2.42;;;;;;;;;;5094087;28;20058;-59
2023/05/08 06:48:58;;;;;;;4.38;2.40;;;;;;;;;;5094390;28;20058;-59
2023/05/08 06:51:26;;;;;;;4.43;2.45;;;;;;;;;;5094071;28;20074;-60
2023/05/08 06:53:53;;;;;;;5.43;2.25;;;;;;;;;;5109630;28;20044;-60
2023/05/08 06:56:21;;;;;;;5.07;2.28;;;;;;;;;;5094057;28;20097;-60
2023/05/08 06:58:49;;;;;;;4.30;2.33;;;;;;;;;;5092625;28;20085;-60
2023/05/08 07:01:31;;;;;;;7.28;2.50;;;;;;;;;;5093801;28;20086;-60
2023/05/08 07:03:59;;;;;;;3.67;2.35;;;;;;;;;;5100700;28;20048;-60
2023/05/08 07:06:27;;;;;;;5.75;2.80;;;;;;;;;;5114046;28;20036;-60
2023/05/08 07:08:54;;;;;;;6.63;2.70;;;;;;;;;;5114053;28;20126;-59
2023/05/08 07:11:21;;;;;;;4.47;2.40;;;;;;;;;;5114153;28;20036;-60
2023/05/08 07:13:49;;;;;;;4.72;2.40;;;;;;;;;;5113980;28;20043;-59
2023/05/08 07:16:17;;;;;;;5.95;3.08;;;;;;;;;;5113888;28;20044;-59
2023/05/08 07:18:44;;;;;;;3.70;2.25;;;;;;;;;;5113753;28;20044;-60
2023/05/08 07:21:12;;;;;;;4.63;2.40;;;;;;;;;;5113827;28;20114;-59
2023/05/08 07:23:39;;;;;;;5.35;2.80;;;;;;;;;;5113789;28;20438;-59
2023/05/08 07:26:07;;;;;;;6.43;2.83;;;;;;;;;;5113465;28;20092;-59
2023/05/08 07:28:34;;;;;;;5.40;2.50;;;;;;;;;;5113648;28;20039;-59
2023/05/08 07:31:05;;;;;;;5.40;2.53;;;;;;;;;;5113744;28;20039;-60
2023/05/08 07:33:33;;;;;;;8.70;2.60;;;;;;;;;;5113612;28;20085;-59
2023/05/08 07:36:00;;;;;;;3.95;2.78;;;;;;;;;;5113528;28;20490;-60
2023/05/08 07:38:28;;;;;;;7.55;2.67;;;;;;;;;;5113481;28;20088;-59
2023/05/08 07:40:56;;;;;;;7.63;2.75;;;;;;;;;;5113458;28;20082;-60
2023/05/08 07:43:23;;;;;;;5.10;2.47;;;;;;;;;;5113352;28;20068;-59
2023/05/08 07:45:51;;;;;;;6.22;2.83;;;;;;;;;;5095518;28;20546;-59
2023/05/08 07:48:19;;;;;;;5.88;2.80;;;;;;;;;;5113379;28;20071;-59
2023/05/08 07:50:46;;;;;;;5.40;2.60;;;;;;;;;;5113374;28;20050;-60
2023/05/08 07:53:14;;;;;;;7.60;3.40;;;;;;;;;;5113417;28;20036;-60
2023/05/08 07:55:41;;;;;;;5.88;2.95;;;;;;;;;;5113771;28;20064;-60
2023/05/08 07:58:09;;;;;;;6.47;3.80;;;;;;;;;;5095019;28;20493;-60
2023/05/08 08:00:36;;;;;;;13.15;4.43;;;;;;;;;;5095261;28;20381;-60
2023/05/08 08:03:04;;;;;;;10.68;3.55;;;;;;;;;;5113084;28;20093;-60
2023/05/08 08:05:31;;;;;;;8.77;3.85;;;;;;;;;;5112957;28;20044;-60
2023/05/08 08:07:59;;;;;;;8.00;3.80;;;;;;;;;;5113065;28;20063;-60
2023/05/08 08:10:26;;;;;;;6.97;4.18;;;;;;;;;;5112998;28;20057;-59
2023/05/08 08:12:54;;;;;;;8.57;3.40;;;;;;;;;;5113209;28;20485;-59
2023/05/08 08:15:21;;;;;;;8.30;3.42;;;;;;;;;;5095140;28;20049;-60
2023/05/08 08:17:49;;;;;;;8.73;3.83;;;;;;;;;;5112859;28;20114;-60
2023/05/08 08:20:17;;;;;;;5.60;3.40;;;;;;;;;;5094446;28;20451;-60
2023/05/08 08:22:44;;;;;;;5.68;3.67;;;;;;;;;;5094911;28;20074;-60
2023/05/08 08:25:12;;;;;;;6.20;3.35;;;;;;;;;;5112728;28;20039;-60
2023/05/08 08:27:40;;;;;;;6.40;3.40;;;;;;;;;;5112829;28;20042;-59
2023/05/08 08:30:07;;;;;;;9.85;4.10;;;;;;;;;;5112784;28;20040;-59
2023/05/08 08:32:44;;;;;;;7.72;3.90;;;;;;;;;;5112746;28;20048;-60
2023/05/08 08:35:12;;;;;;;5.65;3.50;;;;;;;;;;5112775;28;20074;-59
2023/05/08 08:37:40;;;;;;;7.75;4.00;;;;;;;;;;5113306;28;20474;-59
2023/05/08 08:40:08;;;;;;;8.73;3.13;;;;;;;;;;5116768;28;20047;-59
2023/05/08 08:42:36;;;;;;;12.48;4.05;;;;;;;;;;5116946;28;20071;-59
2023/05/08 08:45:03;;;;;;;6.95;3.65;;;;;;;;;;5116723;28;20051;-59
2023/05/08 08:47:40;;;;;;;11.23;4.07;;;;;;;;;;5116925;28;20044;-59
2023/05/08 08:50:08;;;;;;;8.57;3.95;;;;;;;;;;5099706;28;20388;-59
2023/05/08 08:52:45;;;;;;;6.40;3.92;;;;;;;;;;5116704;28;20050;-59
2023/05/08 08:55:15;;;;;;;8.32;4.20;;;;;;;;;;5116709;28;20031;-60
2023/05/08 08:58:01;;;;;;;10.13;4.05;;;;;;;;;;5116840;28;20044;-60
2023/05/08 09:00:31;;;;;;;10.93;3.83;;;;;;;;;;5116526;28;20044;-60
2023/05/08 09:02:59;;;;;;;12.95;3.72;;;;;;;;;;5116880;28;20388;-60
2023/05/08 09:05:27;;;;;;;5.63;3.63;;;;;;;;;;5116491;28;20063;-60
2023/05/08 09:07:55;;;;;;;12.15;3.65;;;;;;;;;;5116362;28;20468;-59
2023/05/08 09:10:23;;;;;;;7.93;4.00;;;;;;;;;;5116365;28;20043;-59
2023/05/08 09:12:51;;;;;;;7.55;3.60;;;;;;;;;;5116215;28;20492;-60
2023/05/08 09:15:19;;;;;;;7.10;4.07;;;;;;;;;;5116222;28;20046;-59
2023/05/08 09:17:46;;;;;;;9.48;3.97;;;;;;;;;;5116164;28;20063;-59
2023/05/08 09:20:15;;;;;;;8.05;4.40;;;;;;;;;;5115993;28;20047;-60
2023/05/08 09:22:43;;;;;;;12.15;4.38;;;;;;;;;;5116119;28;20068;-58
2023/05/08 09:25:10;;;;;;;8.27;3.85;;;;;;;;;;5097927;28;20040;-59
2023/05/08 09:27:38;;;;;;;7.68;4.10;;;;;;;;;;5116025;28;20039;-59
2023/05/08 09:30:10;;;;;;;14.93;4.57;;;;;;;;;;5115881;28;20127;-60
2023/05/08 09:32:38;;;;;;;7.63;3.70;;;;;;;;;;5115868;28;20133;-60
2023/05/08 09:35:07;;;;;;;9.82;4.55;;;;;;;;;;5097545;28;20130;-59
2023/05/08 09:37:37;;;;;;;7.80;4.45;;;;;;;;;;5097810;28;20042;-60
2023/05/08 09:40:13;;;;;;;9.32;4.63;;;;;;;;;;5097573;28;20052;-59
2023/05/08 09:42:41;;;;;;;17.85;5.47;;;;;;;;;;5115585;28;20071;-59
2023/05/08 09:45:09;;;;;;;9.65;4.75;;;;;;;;;;5115779;28;20110;-60
2023/05/08 09:47:38;;;;;;;11.07;4.65;;;;;;;;;;5115695;28;20546;-60
2023/05/08 09:50:07;;;;;;;10.48;5.40;;;;;;;;;;5114438;28;20504;-60
2023/05/08 09:52:36;;;;;;;8.68;4.38;;;;;;;;;;5115470;28;20043;-60
2023/05/08 09:55:10;;;;;;;12.13;4.68;;;;;;;;;;5115897;28;20039;-60
2023/05/08 09:57:38;;;;;;;10.45;4.72;;;;;;;;;;5115491;28;20039;-59
2023/05/08 10:00:09;;;;;;;14.70;5.70;;;;;;;;;;5097325;28;20062;-60
2023/05/08 10:02:38;;;;;;;6.40;4.55;;;;;;;;;;5115792;28;20036;-59
2023/05/08 10:05:22;;;;;;;10.55;5.72;;;;;;;;;;5115172;28;20051;-60
2023/05/08 10:07:49;;;;;;;9.50;4.88;;;;;;;;;;5115291;28;20063;-61
2023/05/08 10:10:25;;;;;;;12.70;4.85;;;;;;;;;;5115126;28;20056;-60
2023/05/08 10:12:56;;;;;;;9.73;4.07;;;;;;;;;;5115024;28;20075;-59
2023/05/08 10:15:25;;;;;;;11.27;4.50;;;;;;;;;;5115031;28;20115;-60
2023/05/08 10:18:08;;;;;;;8.35;3.92;;;;;;;;;;5096998;28;20497;-60
2023/05/08 10:20:38;;;;;;;7.82;4.60;;;;;;;;;;5114942;28;20508;-60
2023/05/08 10:23:13;;;;;;;6.82;4.13;;;;;;;;;;5114902;28;20047;-60
2023/05/08 10:25:43;;;;;;;8.45;4.95;;;;;;;;;;5115275;28;20044;-59
2023/05/08 10:28:22;;;;;;;6.35;4.40;;;;;;;;;;5114671;28;20402;-60
2023/05/08 10:30:50;;;;;;;12.63;5.40;;;;;;;;;;5096696;28;20390;-59
2023/05/08 10:33:20;;;;;;;12.75;6.32;;;;;;;;;;5096667;28;20049;-60
2023/05/08 10:35:48;;;;;;;11.35;7.20;;;;;;;;;;5114644;28;20036;-60
2023/05/08 10:38:16;;;;;;;15.98;12.38;;;;;;;;;;5114669;28;20126;-59
2023/05/08 10:40:45;;;;;;;9.57;6.82;;;;;;;;;;5114173;28;20044;-60
2023/05/08 10:43:12;;;;;;;9.70;6.30;;;;;;;;;;5114512;28;20474;-59
2023/05/08 10:45:40;;;;;;;12.93;6.70;;;;;;;;;;5114411;28;20485;-60
2023/05/08 10:48:16;;;;;;;11.68;6.22;;;;;;;;;;5079349;28;20044;-59
2023/05/08 10:50:43;;;;;;;11.05;6.50;;;;;;;;;;5114261;28;20039;-60
2023/05/08 10:53:20;;;;;;;9.85;6.10;;;;;;;;;;5096610;28;20473;-59
2023/05/08 10:55:50;;;;;;;8.68;6.18;;;;;;;;;;5114243;28;20039;-59
2023/05/08 10:58:21;;;;;;;7.60;5.40;;;;;;;;;;5114535;28;20050;-59
2023/05/08 11:00:51;;;;;;;9.10;5.63;;;;;;;;;;5113750;28;20093;-59
2023/05/08 11:03:31;;;;;;;9.85;5.82;;;;;;;;;;5114204;28;20043;-59
2023/05/08 11:06:00;;;;;;;8.18;5.38;;;;;;;;;;5114547;28;20044;-59
2023/05/08 11:08:29;;;;;;;8.10;6.13;;;;;;;;;;5114374;28;20414;-59
2023/05/08 11:11:03;;;;;;;8.40;5.38;;;;;;;;;;5114178;28;20039;-59
2023/05/08 11:13:50;;;;;;;8.30;6.18;;;;;;;;;;5114021;28;20078;-59
2023/05/08 11:16:17;;;;;;;10.25;6.10;;;;;;;;;;5114142;28;20436;-59
2023/05/08 11:19:03;;;;;;;10.00;6.93;;;;;;;;;;5113874;28;20050;-59
2023/05/08 11:21:31;;;;;;;10.57;7.30;;;;;;;;;;5113636;28;20439;-59
2023/05/08 11:23:59;;;;;;;12.20;7.93;;;;;;;;;;5113824;28;20048;-59
2023/05/08 11:26:46;;;;;;;12.38;8.43;;;;;;;;;;5113766;28;20493;-59
2023/05/08 11:29:17;;;;;;;11.40;9.20;;;;;;;;;;5097188;28;20098;-59
2023/05/08 11:31:51;;;;;;;12.68;9.35;;;;;;;;;;5114050;28;20043;-59
2023/05/08 11:34:38;;;;;;;13.25;10.32;;;;;;;;;;5114089;28;20031;-59
2023/05/08 11:37:09;;;;;;;13.52;10.00;;;;;;;;;;5095236;28;20489;-59
2023/05/08 11:39:36;;;;;;;11.25;8.82;;;;;;;;;;5113674;28;20053;-59
2023/05/08 11:42:23;;;;;;;11.85;9.02;;;;;;;;;;5113926;28;20047;-59
2023/05/08 11:45:09;;;;;;;10.90;8.18;;;;;;;;;;5113386;28;20443;-59
2023/05/08 11:47:40;;;;;;;12.35;8.00;;;;;;;;;;5113656;28;20051;-60
2023/05/08 11:50:09;;;;;;;12.43;8.95;;;;;;;;;;5113601;28;20047;-59
2023/05/08 11:52:37;;;;;;;11.93;8.63;;;;;;;;;;5113453;28;20100;-58
2023/05/08 11:55:06;;;;;;;11.82;8.68;;;;;;;;;;5113381;28;20061;-59
2023/05/08 11:57:33;;;;;;;12.43;8.73;;;;;;;;;;5113383;28;20035;-59
2023/05/08 12:00:05;;;;;;;11.82;9.48;;;;;;;;;;5113339;28;20401;-59
2023/05/08 12:02:38;;;;;;;10.88;8.70;;;;;;;;;;5113183;28;20051;-59
2023/05/08 12:05:06;;;;;;;10.27;9.07;;;;;;;;;;5113089;28;20055;-58
2023/05/08 12:07:46;;;;;;;14.85;9.73;;;;;;;;;;5112930;28;20051;-58
2023/05/08 12:10:14;;;;;;;10.65;9.40;;;;;;;;;;5094811;28;20046;-59
2023/05/08 12:12:44;;;;;;;13.00;10.95;;;;;;;;;;5112150;28;20477;-58
2023/05/08 12:15:13;;;;;;;13.32;10.45;;;;;;;;;;5112059;28;20047;-58
2023/05/08 12:17:41;;;;;;;13.40;9.52;;;;;;;;;;5112861;28;20123;-58
2023/05/08 12:20:15;;;;;;;11.85;8.10;;;;;;;;;;5113236;28;20108;-58
2023/05/08 12:22:51;;;;;;;10.75;7.55;;;;;;;;;;5112864;28;20040;-59
2023/05/08 12:25:18;;;;;;;11.73;9.10;;;;;;;;;;5112737;28;20044;-59
2023/05/08 12:27:46;;;;;;;13.52;9.20;;;;;;;;;;5112878;28;20040;-59
2023/05/08 12:30:14;;;;;;;13.77;9.65;;;;;;;;;;5112795;28;20048;-59
2023/05/08 12:32:43;;;;;;;11.32;9.43;;;;;;;;;;5091816;28;20043;-59
2023/05/08 12:35:12;;;;;;;13.40;8.38;;;;;;;;;;5092477;28;20042;-59
2023/05/08 12:37:39;;;;;;;15.02;8.98;;;;;;;;;;5092285;28;20155;-59
2023/05/08 12:40:07;;;;;;;9.52;7.20;;;;;;;;;;5074383;28;20474;-59
2023/05/08 12:42:45;;;;;;;8.18;6.35;;;;;;;;;;5092424;28;20123;-59
2023/05/08 12:45:26;;;;;;;9.05;5.97;;;;;;;;;;5092643;28;20040;-58
2023/05/08 12:47:59;;;;;;;8.40;6.22;;;;;;;;;;5092382;28;20078;-58
2023/05/08 12:50:29;;;;;;;8.38;6.22;;;;;;;;;;5092338;28;20498;-59
2023/05/08 12:53:06;;;;;;;9.45;6.85;;;;;;;;;;5092351;28;20486;-60
2023/05/08 12:55:35;;;;;;;9.63;7.13;;;;;;;;;;5075252;28;20487;-60
2023/05/08 12:58:04;;;;;;;9.77;7.32;;;;;;;;;;5075084;28;20118;-60
2023/05/08 13:00:40;;;;;;;10.25;8.10;;;;;;;;;;5059980;28;20040;-60
2023/05/08 13:03:10;;;;;;;11.15;8.00;;;;;;;;;;5082530;28;20491;-59
2023/05/08 13:05:42;;;;;;;10.93;7.85;;;;;;;;;;5085007;28;20063;-59
2023/05/08 13:08:09;;;;;;;13.00;7.65;;;;;;;;;;5084955;28;20040;-60
2023/05/08 13:10:45;;;;;;;13.13;8.38;;;;;;;;;;5076962;28;20074;-62
2023/05/08 13:13:13;;;;;;;12.15;8.60;;;;;;;;;;5077778;28;20118;-59
2023/05/08 13:15:40;;;;;;;12.63;9.35;;;;;;;;;;5082875;28;20079;-60
2023/05/08 13:18:08;;;;;;;14.30;10.05;;;;;;;;;;5075270;28;20037;-59
2023/05/08 13:20:36;;;;;;;12.65;9.25;;;;;;;;;;5070544;28;20098;-59
2023/05/08 13:23:03;;;;;;;13.00;10.18;;;;;;;;;;5070050;28;20036;-59
2023/05/08 13:25:31;;;;;;;13.90;9.75;;;;;;;;;;5072862;28;20587;-59
2023/05/08 13:27:59;;;;;;;12.68;10.38;;;;;;;;;;5072693;28;20045;-60
2023/05/08 13:30:27;;;;;;;12.57;9.75;;;;;;;;;;5077701;28;20098;-59
2023/05/08 13:32:54;;;;;;;11.82;10.02;;;;;;;;;;5069312;28;20506;-60
2023/05/08 13:35:22;;;;;;;13.23;9.93;;;;;;;;;;5074430;28;20041;-59
2023/05/08 13:37:50;;;;;;;12.65;9.52;;;;;;;;;;5074449;28;20131;-59
2023/05/08 13:40:18;;;;;;;14.88;10.10;;;;;;;;;;5076015;28;20040;-59
2023/05/08 13:42:45;;;;;;;13.88;10.13;;;;;;;;;;5073740;28;20040;-59
2023/05/08 13:45:13;;;;;;;12.70;10.40;;;;;;;;;;5073486;28;20028;-59
2023/05/08 13:47:41;;;;;;;10.35;9.10;;;;;;;;;;5058015;28;20049;-60
2023/05/08 13:50:10;;;;;;;12.63;9.93;;;;;;;;;;5074119;28;20047;-59
2023/05/08 13:52:38;;;;;;;12.60;9.55;;;;;;;;;;5074484;28;20033;-59
2023/05/08 13:55:06;;;;;;;15.38;10.68;;;;;;;;;;5085325;28;20047;-59
2023/05/08 13:57:34;;;;;;;12.95;9.80;;;;;;;;;;5074520;28;20386;-59
2023/05/08 14:00:03;;;;;;;13.07;9.68;;;;;;;;;;5074185;28;20060;-59
2023/05/08 14:02:33;;;;;;;10.25;8.23;;;;;;;;;;5074473;28;20041;-59
2023/05/08 14:05:01;;;;;;;8.60;6.20;;;;;;;;;;5073528;28;20049;-62
2023/05/08 14:07:28;;;;;;;8.38;7.28;;;;;;;;;;5072744;28;20083;-61
2023/05/08 14:09:56;;;;;;;10.85;7.40;;;;;;;;;;5074285;28;20048;-60
2023/05/08 14:12:23;;;;;;;9.85;7.50;;;;;;;;;;5074118;28;20036;-61
2023/05/08 14:14:51;;;;;;;9.95;8.30;;;;;;;;;;5073360;28;20060;-61
2023/05/08 14:17:18;;;;;;;11.25;7.38;;;;;;;;;;5073673;28;20060;-60
2023/05/08 14:19:46;;;;;;;9.40;6.93;;;;;;;;;;5074101;28;20044;-61
2023/05/08 14:22:13;;;;;;;8.85;6.78;;;;;;;;;;5074291;28;20123;-60
2023/05/08 14:24:41;;;;;;;9.05;6.82;;;;;;;;;;5074182;28;20086;-61
2023/05/08 14:27:08;;;;;;;10.40;7.05;;;;;;;;;;5073809;28;20036;-61
2023/05/08 14:29:36;;;;;;;10.55;8.00;;;;;;;;;;5073743;28;20041;-61
2023/05/08 14:32:03;;;;;;;12.43;8.40;;;;;;;;;;5073822;28;20119;-61
2023/05/08 14:34:31;;;;;;;12.68;8.15;;;;;;;;;;5073610;28;20542;-61
2023/05/08 14:36:59;;;;;;;11.60;8.38;;;;;;;;;;5072871;28;20059;-61
2023/05/08 14:39:26;;;;;;;13.70;9.07;;;;;;;;;;5072062;28;20048;-62
2023/05/08 14:41:53;;;;;;;11.00;8.93;;;;;;;;;;5055167;28;20098;-61
2023/05/08 14:44:41;;;;;;;12.57;8.13;;;;;;;;;;5061950;28;20039;-60
2023/05/08 14:47:09;;;;;;;9.02;7.47;;;;;;;;;;5073564;28;20052;-61
2023/05/08 14:49:36;;;;;;;11.80;8.10;;;;;;;;;;5071838;28;20062;-61
2023/05/08 14:52:06;;;;;;;10.10;8.20;;;;;;;;;;5072416;28;20056;-61
2023/05/08 14:54:33;;;;;;;9.40;7.60;;;;;;;;;;5072175;28;20123;-61